Time;durP1;ratioP1;P1;durP2;ratioP2;P2;SDS_P1;SDS_P2;PMS_P1;PMS_P2;Temp;Humidity;BMP_temperature;BMP_pressure;BME280_temperature;BME280_humidity;BME280_pressure;Samples;Min_cycle;Max_cycle;Signal;HPM_P1;HPM_P2
2022/10/30 00:01:52;;;;;;;19.95;14.38;;;;;;;;;;5000717;28;20728;-73
2022/10/30 00:04:18;;;;;;;23.77;15.27;;;;;;;;;;5001410;28;20501;-74
2022/10/30 00:06:44;;;;;;;24.30;16.27;;;;;;;;;;5002895;28;20038;-73
2022/10/30 00:09:09;;;;;;;25.45;15.40;;;;;;;;;;4998523;28;20048;-73
2022/10/30 00:11:35;;;;;;;19.17;14.32;;;;;;;;;;4998492;28;20033;-73
2022/10/30 00:14:00;;;;;;;16.27;13.45;;;;;;;;;;4999407;28;20031;-73
2022/10/30 00:16:26;;;;;;;16.30;13.43;;;;;;;;;;5000448;28;20516;-74
2022/10/30 00:18:52;;;;;;;25.00;15.50;;;;;;;;;;4998721;28;20030;-73
2022/10/30 00:21:17;;;;;;;23.92;14.85;;;;;;;;;;5000548;28;20615;-74
2022/10/30 00:23:52;;;;;;;21.52;14.15;;;;;;;;;;5002753;28;20049;-73
2022/10/30 00:26:20;;;;;;;19.10;13.43;;;;;;;;;;4997599;28;20121;-73
2022/10/30 00:28:50;;;;;;;20.33;14.45;;;;;;;;;;5002959;28;20057;-73
2022/10/30 00:31:16;;;;;;;18.90;14.05;;;;;;;;;;5004607;28;20792;-73
2022/10/30 00:33:41;;;;;;;15.02;13.32;;;;;;;;;;4999269;28;20058;-73
2022/10/30 00:36:07;;;;;;;24.52;14.10;;;;;;;;;;5003968;28;20037;-73
2022/10/30 00:38:33;;;;;;;17.42;13.20;;;;;;;;;;5000683;28;20125;-73
2022/10/30 00:40:59;;;;;;;21.00;13.20;;;;;;;;;;5003990;28;20457;-73
2022/10/30 00:43:28;;;;;;;21.83;14.90;;;;;;;;;;4986900;28;20250;-72
2022/10/30 00:45:55;;;;;;;15.63;13.73;;;;;;;;;;5009300;28;20038;-73
2022/10/30 00:48:24;;;;;;;15.32;13.13;;;;;;;;;;5019823;28;20190;-74
2022/10/30 00:50:52;;;;;;;15.75;13.55;;;;;;;;;;5000198;28;20072;-74
2022/10/30 00:53:20;;;;;;;17.70;13.45;;;;;;;;;;5001966;28;20045;-73
2022/10/30 00:55:54;;;;;;;20.77;13.30;;;;;;;;;;5003137;28;20046;-73
2022/10/30 00:58:26;;;;;;;24.25;13.90;;;;;;;;;;4998803;28;20121;-73
2022/10/30 01:00:55;;;;;;;19.80;14.05;;;;;;;;;;5008345;28;20121;-73
2022/10/30 01:03:23;;;;;;;17.10;12.82;;;;;;;;;;5005314;28;20037;-73
2022/10/30 01:05:54;;;;;;;17.83;13.70;;;;;;;;;;5004595;28;20048;-73
2022/10/30 01:08:19;;;;;;;16.52;12.65;;;;;;;;;;5001324;28;20030;-73
2022/10/30 01:10:47;;;;;;;27.63;13.70;;;;;;;;;;5005191;28;20046;-73
2022/10/30 01:13:13;;;;;;;15.15;12.93;;;;;;;;;;5006240;28;20045;-73
2022/10/30 01:15:55;;;;;;;14.07;12.38;;;;;;;;;;5003430;28;20047;-72
2022/10/30 01:18:34;;;;;;;18.65;12.98;;;;;;;;;;5003362;28;20456;-72
2022/10/30 01:21:31;;;;;;;18.05;13.48;;;;;;;;;;5001104;28;20484;-72
2022/10/30 01:24:12;;;;;;;22.30;12.95;;;;;;;;;;4999319;28;20044;-72
2022/10/30 01:26:51;;;;;;;17.48;13.15;;;;;;;;;;5000379;28;20044;-72
2022/10/30 01:29:40;;;;;;;20.25;14.02;;;;;;;;;;5005219;28;20035;-72
2022/10/30 01:32:34;;;;;;;17.02;13.20;;;;;;;;;;5002840;28;20512;-72
2022/10/30 01:35:13;;;;;;;22.33;12.25;;;;;;;;;;5004984;28;20077;-72
2022/10/30 01:37:51;;;;;;;19.38;13.05;;;;;;;;;;5006700;28;20091;-72
2022/10/30 01:40:19;;;;;;;15.98;12.88;;;;;;;;;;5002642;28;20098;-72
2022/10/30 01:42:53;;;;;;;18.70;12.45;;;;;;;;;;5002519;28;20622;-73
2022/10/30 01:46:04;;;;;;;16.48;13.32;;;;;;;;;;5004433;28;20034;-72
2022/10/30 01:49:01;;;;;;;17.67;12.88;;;;;;;;;;4999306;28;20109;-72
2022/10/30 01:51:56;;;;;;;17.38;13.57;;;;;;;;;;4999997;28;20042;-72
2022/10/30 01:54:41;;;;;;;18.20;12.77;;;;;;;;;;5003925;28;20056;-72
2022/10/30 01:57:16;;;;;;;21.98;12.93;;;;;;;;;;5002493;28;20053;-72
2022/10/30 01:59:55;;;;;;;20.67;12.85;;;;;;;;;;5001178;28;20049;-72
2022/10/30 02:02:22;;;;;;;14.25;11.40;;;;;;;;;;5004298;28;20037;-72
2022/10/30 02:04:49;;;;;;;19.15;12.60;;;;;;;;;;5004714;28;20481;-72
2022/10/30 02:07:14;;;;;;;18.88;12.77;;;;;;;;;;5002557;28;20420;-72
2022/10/30 02:09:45;;;;;;;20.75;11.55;;;;;;;;;;5004100;28;20046;-73
2022/10/30 02:12:13;;;;;;;13.35;10.98;;;;;;;;;;5004386;28;20378;-72
2022/10/30 02:14:43;;;;;;;17.85;11.90;;;;;;;;;;5004231;28;20092;-72
2022/10/30 02:17:10;;;;;;;14.15;11.88;;;;;;;;;;5004837;28;20038;-72
2022/10/30 02:19:36;;;;;;;15.85;11.50;;;;;;;;;;5009286;28;20034;-72
2022/10/30 02:22:02;;;;;;;18.75;12.13;;;;;;;;;;5006239;28;20038;-72
2022/10/30 02:24:29;;;;;;;14.20;11.23;;;;;;;;;;5007202;28;20118;-72
2022/10/30 02:26:55;;;;;;;12.98;11.48;;;;;;;;;;5010125;28;20056;-72
2022/10/30 02:29:20;;;;;;;18.92;12.55;;;;;;;;;;5010506;28;20061;-72
2022/10/30 02:31:47;;;;;;;20.00;12.00;;;;;;;;;;5000171;28;20048;-74
2022/10/30 02:34:12;;;;;;;14.13;11.43;;;;;;;;;;5010161;28;20042;-72
2022/10/30 02:36:38;;;;;;;20.42;11.68;;;;;;;;;;5007977;28;20096;-72
2022/10/30 02:39:03;;;;;;;18.88;11.80;;;;;;;;;;5007385;28;20120;-72
2022/10/30 02:41:29;;;;;;;15.77;11.50;;;;;;;;;;5005904;28;20386;-72
2022/10/30 02:43:55;;;;;;;18.52;11.45;;;;;;;;;;5000848;28;20524;-72
2022/10/30 02:46:21;;;;;;;18.70;11.50;;;;;;;;;;5007448;28;20393;-72
2022/10/30 02:48:47;;;;;;;18.05;11.45;;;;;;;;;;5006945;28;20030;-72
2022/10/30 02:51:13;;;;;;;17.10;11.70;;;;;;;;;;5007622;28;20037;-72
2022/10/30 02:53:39;;;;;;;15.73;11.80;;;;;;;;;;5004777;28;20034;-72
2022/10/30 02:56:09;;;;;;;13.93;12.02;;;;;;;;;;5006778;28;20045;-74
2022/10/30 02:58:34;;;;;;;17.10;11.55;;;;;;;;;;5005238;28;20026;-73
2022/10/30 03:01:09;;;;;;;18.55;12.00;;;;;;;;;;5003583;28;20034;-73
2022/10/30 03:03:35;;;;;;;15.63;11.40;;;;;;;;;;5007200;28;20038;-73
2022/10/30 03:06:06;;;;;;;17.60;11.65;;;;;;;;;;5008843;28;20030;-73
2022/10/30 03:08:34;;;;;;;22.70;12.38;;;;;;;;;;5008940;28;20052;-74
2022/10/30 03:11:14;;;;;;;20.10;10.85;;;;;;;;;;5006724;28;20034;-73
2022/10/30 03:13:40;;;;;;;16.90;11.55;;;;;;;;;;5007542;28;20168;-73
2022/10/30 03:16:20;;;;;;;11.38;10.20;;;;;;;;;;5008106;28;20048;-73
2022/10/30 03:18:46;;;;;;;13.68;11.30;;;;;;;;;;5005098;28;20148;-74
2022/10/30 03:21:15;;;;;;;17.27;10.27;;;;;;;;;;5008440;28;20046;-73
2022/10/30 03:23:42;;;;;;;15.25;10.57;;;;;;;;;;5006660;28;20049;-73
2022/10/30 03:26:08;;;;;;;14.75;11.25;;;;;;;;;;5010992;28;20676;-73
2022/10/30 03:28:54;;;;;;;14.18;11.00;;;;;;;;;;5006650;28;20045;-74
2022/10/30 03:31:20;;;;;;;14.13;11.05;;;;;;;;;;5006622;28;20163;-73
2022/10/30 03:33:50;;;;;;;20.77;11.27;;;;;;;;;;5005122;28;20053;-73
2022/10/30 03:36:16;;;;;;;13.43;11.10;;;;;;;;;;5004026;28;20122;-73
2022/10/30 03:38:42;;;;;;;17.08;10.55;;;;;;;;;;5007921;28;20550;-73
2022/10/30 03:41:10;;;;;;;21.77;11.00;;;;;;;;;;4994576;28;20073;-74
2022/10/30 03:43:36;;;;;;;13.70;11.30;;;;;;;;;;5004573;28;20086;-73
2022/10/30 03:46:02;;;;;;;13.38;10.45;;;;;;;;;;5004376;28;20031;-74
2022/10/30 03:48:29;;;;;;;20.52;11.38;;;;;;;;;;5007895;28;20450;-73
2022/10/30 03:50:58;;;;;;;13.50;11.25;;;;;;;;;;5006972;28;20129;-74
2022/10/30 03:53:25;;;;;;;15.27;11.88;;;;;;;;;;5003628;28;20033;-73
2022/10/30 03:55:52;;;;;;;16.48;12.05;;;;;;;;;;5001336;28;20550;-73
2022/10/30 03:58:18;;;;;;;18.73;11.70;;;;;;;;;;5001301;28;20038;-73
2022/10/30 04:00:47;;;;;;;14.02;11.65;;;;;;;;;;5007001;28;20034;-73
2022/10/30 04:03:13;;;;;;;17.20;11.90;;;;;;;;;;4998116;28;20039;-74
2022/10/30 04:05:41;;;;;;;16.05;11.55;;;;;;;;;;5005353;28;20043;-76
2022/10/30 04:08:12;;;;;;;14.10;11.77;;;;;;;;;;5007898;28;20068;-76
2022/10/30 04:10:45;;;;;;;13.50;12.10;;;;;;;;;;5005695;28;20053;-75
2022/10/30 04:13:12;;;;;;;15.43;12.27;;;;;;;;;;5003364;28;20038;-74
2022/10/30 04:15:48;;;;;;;16.95;11.30;;;;;;;;;;5003900;28;20660;-73
2022/10/30 04:18:15;;;;;;;17.92;12.27;;;;;;;;;;4995249;28;20793;-74
2022/10/30 04:20:41;;;;;;;12.90;11.45;;;;;;;;;;5003436;28;20080;-73
2022/10/30 04:23:09;;;;;;;15.90;12.60;;;;;;;;;;5004420;28;20041;-73
2022/10/30 04:25:35;;;;;;;17.33;11.52;;;;;;;;;;5005012;28;20041;-74
2022/10/30 04:28:01;;;;;;;18.73;11.90;;;;;;;;;;5007413;28;20421;-73
2022/10/30 04:30:27;;;;;;;16.10;12.00;;;;;;;;;;5003549;28;20033;-73
2022/10/30 04:32:55;;;;;;;15.73;11.52;;;;;;;;;;5005167;28;20042;-74
2022/10/30 04:35:24;;;;;;;13.93;11.50;;;;;;;;;;5007309;28;20038;-74
2022/10/30 04:38:03;;;;;;;14.25;11.15;;;;;;;;;;5005624;28;20088;-73
2022/10/30 04:40:35;;;;;;;17.38;11.60;;;;;;;;;;5000042;28;20168;-73
2022/10/30 04:43:05;;;;;;;15.57;11.55;;;;;;;;;;5004323;28;20030;-74
2022/10/30 04:45:32;;;;;;;17.55;11.73;;;;;;;;;;5006248;28;20041;-74
2022/10/30 04:48:09;;;;;;;13.82;11.50;;;;;;;;;;5004485;28;20558;-74
2022/10/30 04:50:34;;;;;;;14.40;11.23;;;;;;;;;;5005051;28;20108;-73
2022/10/30 04:53:06;;;;;;;13.70;10.95;;;;;;;;;;5005105;28;20034;-74
2022/10/30 04:55:32;;;;;;;14.68;11.50;;;;;;;;;;5006119;28;20063;-74
2022/10/30 04:57:58;;;;;;;12.32;11.07;;;;;;;;;;5002208;28;20116;-73
2022/10/30 05:00:25;;;;;;;19.63;11.85;;;;;;;;;;5002896;28;20042;-73
2022/10/30 05:02:53;;;;;;;20.73;10.65;;;;;;;;;;5008710;28;20068;-74
2022/10/30 05:05:20;;;;;;;14.93;10.75;;;;;;;;;;5005505;28;20558;-74
2022/10/30 05:07:47;;;;;;;19.15;11.60;;;;;;;;;;4998639;28;20037;-74
2022/10/30 05:10:17;;;;;;;15.73;11.27;;;;;;;;;;5006225;28;20029;-73
2022/10/30 05:12:44;;;;;;;16.30;11.20;;;;;;;;;;5008028;28;20045;-74
2022/10/30 05:15:11;;;;;;;19.40;12.13;;;;;;;;;;5004090;28;20548;-74
2022/10/30 05:17:37;;;;;;;17.02;10.77;;;;;;;;;;5002662;28;20037;-74
2022/10/30 05:20:04;;;;;;;15.70;11.27;;;;;;;;;;5005791;28;20042;-74
2022/10/30 05:22:31;;;;;;;20.23;11.18;;;;;;;;;;5005003;28;20092;-73
2022/10/30 05:24:57;;;;;;;12.05;10.48;;;;;;;;;;5002223;28;20045;-74
2022/10/30 05:27:22;;;;;;;17.10;11.02;;;;;;;;;;5004507;28;20034;-73
2022/10/30 05:29:48;;;;;;;21.15;11.23;;;;;;;;;;5005319;28;20047;-74
2022/10/30 05:32:14;;;;;;;13.43;11.13;;;;;;;;;;5003461;28;20038;-74
2022/10/30 05:34:44;;;;;;;11.98;10.55;;;;;;;;;;4998533;28;20084;-71
2022/10/30 05:37:10;;;;;;;12.68;10.45;;;;;;;;;;4983397;28;20088;-73
2022/10/30 05:39:36;;;;;;;16.50;10.45;;;;;;;;;;5004380;28;20042;-74
2022/10/30 05:42:04;;;;;;;15.27;11.80;;;;;;;;;;5001191;28;20045;-73
2022/10/30 05:44:39;;;;;;;17.70;11.75;;;;;;;;;;5002128;28;20046;-74
2022/10/30 05:47:05;;;;;;;14.52;10.85;;;;;;;;;;5004333;28;20034;-74
2022/10/30 05:49:33;;;;;;;15.55;11.73;;;;;;;;;;5007680;28;20048;-81
2022/10/30 05:52:00;;;;;;;11.00;9.88;;;;;;;;;;5016318;28;20037;-81
2022/10/30 05:54:26;;;;;;;13.88;10.70;;;;;;;;;;4992460;28;20499;-82
2022/10/30 05:57:06;;;;;;;14.82;11.02;;;;;;;;;;5012696;28;20076;-81
2022/10/30 05:59:34;;;;;;;18.63;11.52;;;;;;;;;;5010995;28;20185;-81
2022/10/30 06:02:01;;;;;;;16.73;11.50;;;;;;;;;;5013675;28;20341;-81
2022/10/30 06:04:27;;;;;;;14.68;11.43;;;;;;;;;;5007072;28;20037;-81
2022/10/30 06:06:53;;;;;;;11.68;10.43;;;;;;;;;;5013585;28;20065;-80
2022/10/30 06:09:19;;;;;;;15.60;11.77;;;;;;;;;;5019087;28;20037;-81
2022/10/30 06:12:20;;;;;;;12.52;11.20;;;;;;;;;;5059267;28;20071;-78
2022/10/30 06:15:21;;;;;;;18.30;11.27;;;;;;;;;;5008237;28;20041;-79
2022/10/30 06:17:48;;;;;;;13.15;11.85;;;;;;;;;;5013091;28;20037;-78
2022/10/30 06:20:19;;;;;;;13.77;10.63;;;;;;;;;;5015881;28;20516;-79
2022/10/30 06:23:00;;;;;;;15.80;10.90;;;;;;;;;;5011632;28;20038;-80
2022/10/30 06:25:35;;;;;;;12.35;10.80;;;;;;;;;;5007993;28;20042;-80
2022/10/30 06:28:21;;;;;;;16.27;11.80;;;;;;;;;;5009535;28;20037;-79
2022/10/30 06:30:47;;;;;;;12.35;10.70;;;;;;;;;;5009328;28;20551;-79
2022/10/30 06:33:12;;;;;;;16.08;11.90;;;;;;;;;;5009201;28;20045;-80
2022/10/30 06:35:43;;;;;;;20.55;12.20;;;;;;;;;;5009004;28;20038;-79
2022/10/30 06:38:10;;;;;;;13.68;10.70;;;;;;;;;;5013880;28;20061;-78
2022/10/30 06:40:37;;;;;;;15.20;11.05;;;;;;;;;;5011359;28;20050;-78
2022/10/30 06:43:22;;;;;;;13.63;10.65;;;;;;;;;;5011809;28;20034;-79
2022/10/30 06:45:56;;;;;;;18.15;10.32;;;;;;;;;;5008298;28;20076;-79
2022/10/30 06:48:22;;;;;;;13.10;9.90;;;;;;;;;;5012481;28;20037;-79
2022/10/30 06:50:56;;;;;;;14.18;11.20;;;;;;;;;;5009382;28;20094;-81
2022/10/30 06:53:22;;;;;;;15.50;10.45;;;;;;;;;;5006502;28;20034;-79
2022/10/30 06:55:57;;;;;;;16.48;10.48;;;;;;;;;;5011701;28;20062;-81
2022/10/30 06:59:01;;;;;;;12.63;10.82;;;;;;;;;;5018905;28;20041;-79
2022/10/30 07:01:35;;;;;;;10.73;9.43;;;;;;;;;;5024280;28;20041;-80
2022/10/30 07:04:12;;;;;;;18.45;11.40;;;;;;;;;;5008619;28;20050;-79
2022/10/30 07:06:38;;;;;;;20.98;10.75;;;;;;;;;;5018406;28;20049;-79
2022/10/30 07:09:03;;;;;;;12.20;9.10;;;;;;;;;;5003030;28;20037;-79
2022/10/30 07:11:29;;;;;;;11.88;10.10;;;;;;;;;;5005889;28;20070;-80
2022/10/30 07:14:06;;;;;;;11.85;10.00;;;;;;;;;;4998884;28;20041;-80
2022/10/30 07:16:47;;;;;;;14.77;9.05;;;;;;;;;;5004642;28;20083;-79
2022/10/30 07:19:13;;;;;;;11.02;9.95;;;;;;;;;;5010602;28;20096;-80
2022/10/30 07:21:39;;;;;;;11.40;10.40;;;;;;;;;;5001135;28;20042;-80
2022/10/30 07:24:05;;;;;;;16.73;9.98;;;;;;;;;;4999080;28;20056;-81
2022/10/30 07:26:36;;;;;;;13.23;10.03;;;;;;;;;;5004319;28;20048;-79
2022/10/30 07:29:12;;;;;;;12.82;10.55;;;;;;;;;;5003984;28;20121;-80
2022/10/30 07:31:42;;;;;;;13.95;9.68;;;;;;;;;;5004638;28;20034;-81
2022/10/30 07:34:26;;;;;;;12.73;9.60;;;;;;;;;;5013438;28;20177;-80
2022/10/30 07:37:19;;;;;;;11.35;9.95;;;;;;;;;;5011629;28;20049;-80
2022/10/30 07:39:55;;;;;;;12.95;9.68;;;;;;;;;;5008216;28;20042;-80
2022/10/30 07:42:24;;;;;;;16.20;10.15;;;;;;;;;;5009956;28;20052;-79
2022/10/30 07:45:12;;;;;;;16.48;10.30;;;;;;;;;;5010492;28;20037;-80
2022/10/30 07:48:12;;;;;;;10.93;9.77;;;;;;;;;;5011394;28;20033;-78
2022/10/30 07:50:58;;;;;;;17.92;10.10;;;;;;;;;;5008275;28;20129;-80
2022/10/30 07:53:23;;;;;;;13.73;9.75;;;;;;;;;;5007474;28;20069;-78
2022/10/30 07:55:50;;;;;;;16.20;9.52;;;;;;;;;;5009050;28;20096;-79
2022/10/30 07:58:36;;;;;;;14.10;9.30;;;;;;;;;;5010448;28;20534;-79
2022/10/30 08:01:20;;;;;;;13.65;9.60;;;;;;;;;;5007504;28;20111;-78
2022/10/30 08:03:47;;;;;;;10.23;9.27;;;;;;;;;;5005210;28;20367;-79
2022/10/30 08:06:21;;;;;;;12.30;9.60;;;;;;;;;;5006856;28;20477;-80
2022/10/30 08:08:47;;;;;;;9.95;9.10;;;;;;;;;;5009187;28;20164;-80
2022/10/30 08:11:24;;;;;;;10.50;9.35;;;;;;;;;;5005462;28;20041;-80
2022/10/30 08:13:51;;;;;;;12.00;9.43;;;;;;;;;;5010601;28;20408;-81
2022/10/30 08:16:17;;;;;;;10.55;9.43;;;;;;;;;;5001367;28;20033;-82
2022/10/30 08:18:43;;;;;;;13.77;9.18;;;;;;;;;;5005135;28;20044;-82
2022/10/30 08:21:10;;;;;;;13.13;9.27;;;;;;;;;;4988808;28;20046;-83
2022/10/30 08:23:40;;;;;;;9.60;8.60;;;;;;;;;;5020327;28;20129;-81
2022/10/30 08:26:11;;;;;;;10.60;8.93;;;;;;;;;;5022825;28;20090;-83
2022/10/30 08:28:37;;;;;;;12.75;9.00;;;;;;;;;;4994507;28;20041;-81
2022/10/30 08:31:06;;;;;;;10.75;8.98;;;;;;;;;;5019704;28;20034;-82
2022/10/30 08:33:54;;;;;;;14.45;9.50;;;;;;;;;;5014687;28;20041;-79
2022/10/30 08:36:27;;;;;;;15.52;8.70;;;;;;;;;;5011951;28;20049;-79
2022/10/30 08:38:53;;;;;;;16.77;10.10;;;;;;;;;;5014728;28;20041;-80
2022/10/30 08:41:36;;;;;;;12.57;9.18;;;;;;;;;;5008737;28;20077;-80
2022/10/30 08:44:02;;;;;;;17.05;9.20;;;;;;;;;;5007883;28;20071;-79
2022/10/30 08:46:40;;;;;;;13.13;8.75;;;;;;;;;;4988476;28;20158;-79
2022/10/30 08:49:07;;;;;;;16.55;9.10;;;;;;;;;;5006496;28;20088;-79
2022/10/30 08:51:38;;;;;;;13.13;9.50;;;;;;;;;;5008740;28;20045;-79
2022/10/30 08:54:04;;;;;;;11.52;8.85;;;;;;;;;;5012604;28;20038;-82
2022/10/30 08:56:30;;;;;;;15.70;8.95;;;;;;;;;;4989645;28;20133;-83
2022/10/30 08:59:06;;;;;;;15.15;9.02;;;;;;;;;;4968773;28;20039;-81
2022/10/30 09:01:35;;;;;;;10.70;8.35;;;;;;;;;;4986375;28;20045;-81
2022/10/30 09:04:19;;;;;;;9.75;8.48;;;;;;;;;;5011211;28;20064;-79
2022/10/30 09:06:50;;;;;;;12.98;8.38;;;;;;;;;;5009450;28;20531;-78
2022/10/30 09:09:36;;;;;;;12.48;8.13;;;;;;;;;;5017068;28;20093;-78
2022/10/30 09:12:03;;;;;;;10.45;8.55;;;;;;;;;;5009218;28;20057;-80
2022/10/30 09:14:34;;;;;;;10.30;7.85;;;;;;;;;;5006586;28;20038;-78
2022/10/30 09:17:00;;;;;;;17.38;7.65;;;;;;;;;;5006901;28;20526;-79
2022/10/30 09:19:27;;;;;;;12.38;8.65;;;;;;;;;;5012283;28;20540;-79
2022/10/30 09:21:53;;;;;;;14.10;8.95;;;;;;;;;;5002588;28;20073;-77
2022/10/30 09:24:20;;;;;;;13.50;8.95;;;;;;;;;;5003010;28;20048;-78
2022/10/30 09:26:48;;;;;;;16.25;8.30;;;;;;;;;;5004948;28;20046;-77
2022/10/30 09:29:22;;;;;;;11.13;8.15;;;;;;;;;;4999685;28;20053;-78
2022/10/30 09:32:09;;;;;;;14.00;7.72;;;;;;;;;;5004109;28;20065;-78
2022/10/30 09:34:46;;;;;;;12.05;7.72;;;;;;;;;;4988820;28;20503;-78
2022/10/30 09:37:17;;;;;;;17.50;8.30;;;;;;;;;;5003042;28;20035;-78
2022/10/30 09:39:45;;;;;;;15.25;8.50;;;;;;;;;;5005621;28;20034;-78
2022/10/30 09:42:16;;;;;;;11.40;8.50;;;;;;;;;;5003063;28;20122;-77
2022/10/30 09:45:24;;;;;;;9.55;8.40;;;;;;;;;;5003695;28;20494;-78
2022/10/30 09:48:02;;;;;;;9.98;7.70;;;;;;;;;;4985406;28;20050;-78
2022/10/30 09:50:54;;;;;;;12.85;7.88;;;;;;;;;;5007098;28;20037;-78
2022/10/30 09:53:45;;;;;;;10.43;8.10;;;;;;;;;;5000884;28;20498;-78
2022/10/30 09:56:26;;;;;;;10.98;7.15;;;;;;;;;;4992998;28;20037;-79
2022/10/30 09:59:16;;;;;;;8.02;7.22;;;;;;;;;;4987991;28;20030;-78
2022/10/30 10:01:57;;;;;;;8.90;7.03;;;;;;;;;;5004975;28;20084;-78
2022/10/30 10:04:45;;;;;;;10.57;7.60;;;;;;;;;;5000770;28;20433;-78
2022/10/30 10:07:18;;;;;;;;;;;;;;;;;;5004948;28;20057;-78
2022/10/30 10:10:00;;;;;;;12.77;8.23;;;;;;;;;;5005692;28;19961;-78
2022/10/30 10:12:48;;;;;;;13.27;7.90;;;;;;;;;;5015307;28;20493;-78
2022/10/30 10:15:19;;;;;;;;;;;;;;;;;;5001196;28;20052;-78
2022/10/30 10:17:45;;;;;;;12.38;7.70;;;;;;;;;;5001462;28;20372;-78
2022/10/30 10:20:16;;;;;;;10.88;6.93;;;;;;;;;;5006217;28;20053;-77
2022/10/30 10:22:49;;;;;;;12.30;7.80;;;;;;;;;;5002568;28;20041;-78
2022/10/30 10:25:17;;;;;;;12.57;7.30;;;;;;;;;;5005560;28;20437;-78
2022/10/30 10:27:57;;;;;;;11.77;7.50;;;;;;;;;;5004171;28;20026;-78
2022/10/30 10:30:24;;;;;;;14.45;7.53;;;;;;;;;;4997830;28;20029;-77
2022/10/30 10:33:21;;;;;;;9.23;7.05;;;;;;;;;;5002941;28;20034;-77
2022/10/30 10:35:57;;;;;;;11.73;8.00;;;;;;;;;;5003103;28;20515;-77
2022/10/30 10:38:47;;;;;;;15.38;8.13;;;;;;;;;;5008975;28;20026;-77
2022/10/30 10:41:20;;;;;;;11.20;7.80;;;;;;;;;;5002914;28;20041;-77
2022/10/30 10:44:06;;;;;;;10.25;7.65;;;;;;;;;;4994354;28;20044;-77
2022/10/30 10:46:53;;;;;;;11.52;7.40;;;;;;;;;;4995574;28;20189;-77
2022/10/30 10:49:31;;;;;;;13.77;9.02;;;;;;;;;;5005754;28;20022;-77
2022/10/30 10:52:08;;;;;;;13.75;8.55;;;;;;;;;;5000339;28;20683;-77
2022/10/30 10:54:46;;;;;;;11.02;8.10;;;;;;;;;;5005753;28;20033;-77
2022/10/30 10:57:23;;;;;;;10.85;8.13;;;;;;;;;;5005002;28;20045;-77
2022/10/30 10:59:55;;;;;;;10.38;8.07;;;;;;;;;;5000715;28;20811;-77
2022/10/30 11:02:36;;;;;;;8.82;7.90;;;;;;;;;;5001599;28;20088;-77
2022/10/30 11:05:11;;;;;;;11.75;8.13;;;;;;;;;;4995628;28;20457;-74
2022/10/30 11:07:47;;;;;;;8.93;7.40;;;;;;;;;;5002056;28;20030;-75
2022/10/30 11:10:14;;;;;;;9.73;7.25;;;;;;;;;;5006855;28;20033;-75
2022/10/30 11:12:41;;;;;;;11.63;7.90;;;;;;;;;;5002202;28;20028;-75
2022/10/30 11:15:31;;;;;;;12.38;7.72;;;;;;;;;;5020005;28;20644;-74
2022/10/30 11:18:04;;;;;;;11.00;7.65;;;;;;;;;;5003278;28;20477;-74
2022/10/30 11:20:41;;;;;;;13.25;7.85;;;;;;;;;;5007915;28;20694;-74
2022/10/30 11:23:48;;;;;;;15.55;8.45;;;;;;;;;;5004947;28;20030;-73
2022/10/30 11:26:17;;;;;;;12.10;7.50;;;;;;;;;;5000707;28;20500;-76
2022/10/30 11:28:49;;;;;;;15.57;8.15;;;;;;;;;;5007231;28;20560;-75
2022/10/30 11:31:23;;;;;;;11.27;8.07;;;;;;;;;;5004907;28;20046;-77
2022/10/30 11:33:49;;;;;;;13.68;8.30;;;;;;;;;;4999957;28;20650;-77
2022/10/30 11:36:18;;;;;;;10.07;7.75;;;;;;;;;;5010519;28;20040;-77
2022/10/30 11:38:44;;;;;;;10.63;7.60;;;;;;;;;;5009909;28;20184;-76
2022/10/30 11:41:11;;;;;;;8.95;8.05;;;;;;;;;;4996656;28;20545;-77
2022/10/30 11:43:38;;;;;;;9.73;7.80;;;;;;;;;;5007304;28;20048;-76
2022/10/30 11:46:08;;;;;;;11.52;7.78;;;;;;;;;;5009436;28;20037;-76
2022/10/30 11:48:37;;;;;;;11.98;7.78;;;;;;;;;;5010763;28;20461;-76
2022/10/30 11:51:03;;;;;;;13.93;7.80;;;;;;;;;;5003069;28;20034;-77
2022/10/30 11:53:55;;;;;;;14.27;8.05;;;;;;;;;;5010959;28;20041;-77
2022/10/30 11:56:22;;;;;;;10.48;8.20;;;;;;;;;;5003590;28;20562;-77
2022/10/30 11:58:52;;;;;;;8.30;7.50;;;;;;;;;;5001561;28;20061;-77
2022/10/30 12:01:27;;;;;;;8.48;7.75;;;;;;;;;;5004974;28;20462;-77
2022/10/30 12:03:54;;;;;;;9.10;8.15;;;;;;;;;;5005679;28;20136;-76
2022/10/30 12:06:23;;;;;;;9.32;8.35;;;;;;;;;;5006498;28;20045;-77
2022/10/30 12:09:01;;;;;;;13.90;7.85;;;;;;;;;;5004737;28;20033;-77
2022/10/30 12:11:32;;;;;;;15.25;8.02;;;;;;;;;;5005651;28;20046;-77
2022/10/30 12:13:58;;;;;;;8.90;8.00;;;;;;;;;;5006891;28;20032;-77
2022/10/30 12:16:25;;;;;;;10.82;8.43;;;;;;;;;;5002909;28;20500;-77
2022/10/30 12:19:14;;;;;;;8.80;7.70;;;;;;;;;;5004066;28;20398;-77
2022/10/30 12:21:44;;;;;;;;;;;;;;;;;;5009775;28;20041;-77
2022/10/30 12:24:25;;;;;;;10.95;8.35;;;;;;;;;;5008772;28;20287;-76
2022/10/30 12:26:53;;;;;;;9.05;8.15;;;;;;;;;;5002133;28;20056;-77
2022/10/30 12:29:23;;;;;;;11.18;8.25;;;;;;;;;;5015483;28;20073;-76
2022/10/30 12:31:57;;;;;;;11.55;7.93;;;;;;;;;;4989596;28;20037;-77
2022/10/30 12:34:39;;;;;;;9.05;8.02;;;;;;;;;;4999669;28;20029;-77
2022/10/30 12:37:16;;;;;;;9.20;8.43;;;;;;;;;;4997482;28;20112;-77
2022/10/30 12:39:46;;;;;;;8.75;7.60;;;;;;;;;;4994600;28;20128;-77
2022/10/30 12:42:15;;;;;;;11.75;7.90;;;;;;;;;;4990792;28;20038;-77
2022/10/30 12:44:54;;;;;;;9.73;8.20;;;;;;;;;;5001975;28;20030;-77
2022/10/30 12:47:28;;;;;;;10.70;8.07;;;;;;;;;;4995791;28;20301;-77
2022/10/30 12:50:00;;;;;;;8.98;8.10;;;;;;;;;;4998786;28;20408;-77
2022/10/30 12:52:38;;;;;;;13.27;8.45;;;;;;;;;;4995470;28;20125;-77
2022/10/30 12:55:35;;;;;;;12.13;8.32;;;;;;;;;;4983033;28;20049;-77
2022/10/30 12:58:20;;;;;;;13.23;7.63;;;;;;;;;;4985769;28;20505;-77
2022/10/30 13:00:59;;;;;;;9.90;7.78;;;;;;;;;;5008033;28;20037;-77
2022/10/30 13:03:30;;;;;;;9.13;7.45;;;;;;;;;;4989101;28;20074;-76
2022/10/30 13:06:12;;;;;;;14.55;8.00;;;;;;;;;;4999982;28;20292;-76
2022/10/30 13:08:45;;;;;;;12.55;7.82;;;;;;;;;;4993650;28;20034;-77
2022/10/30 13:11:17;;;;;;;10.98;7.30;;;;;;;;;;4990166;28;20122;-76
2022/10/30 13:13:47;;;;;;;11.57;8.00;;;;;;;;;;4998391;28;20132;-76
2022/10/30 13:16:26;;;;;;;10.20;7.50;;;;;;;;;;4999595;28;20038;-77
2022/10/30 13:18:55;;;;;;;9.75;7.95;;;;;;;;;;5001781;28;20250;-76
2022/10/30 13:21:54;;;;;;;8.10;7.38;;;;;;;;;;5000987;28;20608;-76
2022/10/30 13:24:24;;;;;;;;;;;;;;;;;;5004833;28;20085;-76
2022/10/30 13:27:14;;;;;;;10.10;7.80;;;;;;;;;;5006200;28;19921;-76
2022/10/30 13:29:48;;;;;;;11.52;7.75;;;;;;;;;;5003516;28;20038;-76
2022/10/30 13:32:44;;;;;;;12.50;8.30;;;;;;;;;;4998209;28;20117;-77
2022/10/30 13:35:16;;;;;;;10.30;7.38;;;;;;;;;;5003582;28;20073;-76
2022/10/30 13:37:52;;;;;;;8.57;7.47;;;;;;;;;;5004442;28;20022;-76
2022/10/30 13:40:27;;;;;;;15.68;8.07;;;;;;;;;;5000620;28;20046;-76
2022/10/30 13:43:01;;;;;;;23.50;16.10;;;;;;;;;;5003430;28;20089;-77
2022/10/30 13:45:50;;;;;;;13.68;8.95;;;;;;;;;;5001490;28;20021;-76
2022/10/30 13:48:37;;;;;;;12.18;8.00;;;;;;;;;;5000212;28;20033;-76
2022/10/30 13:51:35;;;;;;;8.70;7.90;;;;;;;;;;4997968;28;20374;-76
2022/10/30 13:54:26;;;;;;;11.13;8.10;;;;;;;;;;5001830;28;20076;-77
2022/10/30 13:56:54;;;;;;;10.15;8.15;;;;;;;;;;4999094;28;20119;-76
2022/10/30 13:59:34;;;;;;;9.07;8.27;;;;;;;;;;4997343;28;20034;-76
2022/10/30 14:02:13;;;;;;;12.43;7.85;;;;;;;;;;5003225;28;20551;-76
2022/10/30 14:04:49;;;;;;;10.45;7.50;;;;;;;;;;5005196;28;20034;-76
2022/10/30 14:07:29;;;;;;;9.93;8.60;;;;;;;;;;5005503;28;20044;-77
2022/10/30 14:09:57;;;;;;;10.73;8.18;;;;;;;;;;5005413;28;20026;-76
2022/10/30 14:13:03;;;;;;;8.80;8.00;;;;;;;;;;5000889;28;20038;-76
2022/10/30 14:15:29;;;;;;;12.38;7.82;;;;;;;;;;5004951;28;20029;-76
2022/10/30 14:18:12;;;;;;;11.70;8.40;;;;;;;;;;4999639;28;20034;-76
2022/10/30 14:20:43;;;;;;;8.63;7.72;;;;;;;;;;5007022;28;20099;-76
2022/10/30 14:23:35;;;;;;;13.38;8.20;;;;;;;;;;5008992;28;20121;-76
2022/10/30 14:26:03;;;;;;;10.07;7.82;;;;;;;;;;5001192;28;20164;-76
2022/10/30 14:28:41;;;;;;;9.13;8.23;;;;;;;;;;5004483;28;20030;-76
2022/10/30 14:31:15;;;;;;;19.17;8.07;;;;;;;;;;5009489;28;20046;-76
2022/10/30 14:33:54;;;;;;;12.43;8.25;;;;;;;;;;4999750;28;20437;-76
2022/10/30 14:36:25;;;;;;;12.65;8.00;;;;;;;;;;5009648;28;20042;-76
2022/10/30 14:38:53;;;;;;;9.00;7.72;;;;;;;;;;5008949;28;20033;-76
2022/10/30 14:41:36;;;;;;;8.93;8.03;;;;;;;;;;5007695;28;20037;-76
2022/10/30 14:44:12;;;;;;;10.77;7.88;;;;;;;;;;5008288;28;20040;-76
2022/10/30 14:47:13;;;;;;;10.68;8.70;;;;;;;;;;4998941;28;20671;-76
2022/10/30 14:50:07;;;;;;;9.88;8.13;;;;;;;;;;5000109;28;20054;-76
2022/10/30 14:52:46;;;;;;;14.02;8.70;;;;;;;;;;4999151;28;20038;-76
2022/10/30 14:55:24;;;;;;;9.77;8.60;;;;;;;;;;5006189;28;20092;-76
2022/10/30 14:57:52;;;;;;;11.20;8.68;;;;;;;;;;5000866;28;20657;-76
2022/10/30 15:00:20;;;;;;;14.40;8.43;;;;;;;;;;5005065;28;20038;-76
2022/10/30 15:03:06;;;;;;;9.05;8.13;;;;;;;;;;5005939;28;20379;-76